createdAt,value
2017-04-05T00:00:51.754Z,38.95
2017-04-05T00:01:51.853Z,39.24
2017-04-05T00:02:51.771Z,39.14
2017-04-05T00:03:51.778Z,39.24
2017-04-05T00:04:51.776Z,39.14
2017-04-05T00:05:51.467Z,39.04
2017-04-05T00:06:51.783Z,38.95
2017-04-05T00:07:51.531Z,39.04
2017-04-05T00:08:51.483Z,39.04
2017-04-05T00:09:51.801Z,39.04
2017-04-05T00:10:51.814Z,38.47
2017-04-05T00:11:51.862Z,38.68
2017-04-05T00:12:51.965Z,38.39
2017-04-05T00:13:51.828Z,38.56
2017-04-05T00:14:51.876Z,38.56
2017-04-05T00:15:51.837Z,38.47
2017-04-05T00:16:51.891Z,38.47
2017-04-05T00:17:51.852Z,38.85
2017-04-05T00:18:51.847Z,38.47
2017-04-05T00:19:51.860Z,38.66
2017-04-05T00:20:51.911Z,39.14
2017-04-05T00:21:52.966Z,39.04
2017-04-05T00:22:51.865Z,38.56
2017-04-05T00:23:51.958Z,38.56
2017-04-05T00:24:51.876Z,38.66
2017-04-05T00:25:51.618Z,38.85
2017-04-05T00:26:51.891Z,38.85
2017-04-05T00:27:51.946Z,38.85
2017-04-05T00:28:51.902Z,38.85
2017-04-05T00:29:51.902Z,38.47
2017-04-05T00:30:51.908Z,38.56
2017-04-05T00:31:51.611Z,38.47
2017-04-05T00:32:52.976Z,38.76
2017-04-05T00:33:51.980Z,38.56
2017-04-05T00:34:52.028Z,38.66
2017-04-05T00:35:51.939Z,38.85
2017-04-05T00:36:51.946Z,39.14
2017-04-05T00:37:51.992Z,38.56
2017-04-05T00:38:51.953Z,38.56
2017-04-05T00:39:51.952Z,38.56
2017-04-05T00:40:52.007Z,38.47
2017-04-05T00:41:51.963Z,38.76
2017-04-05T00:42:52.019Z,38.47
2017-04-05T00:43:52.822Z,38.56
2017-04-05T00:44:52.078Z,38.66
2017-04-05T00:45:51.984Z,38.66
2017-04-05T00:46:52.085Z,38.37
2017-04-05T00:47:53.054Z,38.56
2017-04-05T00:48:52.055Z,38.76
2017-04-05T00:49:52.105Z,38.85
2017-04-05T00:50:52.011Z,39.04
2017-04-05T00:51:52.019Z,38.95
2017-04-05T00:52:52.022Z,39.04
2017-04-05T00:53:52.023Z,39.04
2017-04-05T00:54:52.038Z,38.95
2017-04-05T00:55:52.035Z,38.95
2017-04-05T00:56:51.789Z,39.04
2017-04-05T00:57:52.049Z,38.95
2017-04-05T00:58:52.852Z,39.04
2017-04-05T00:59:52.055Z,39.14
2017-04-05T01:00:52.067Z,39.04
2017-04-05T01:01:52.063Z,38.95
2017-04-05T01:02:52.122Z,39.14
2017-04-05T01:03:52.126Z,39.04
2017-04-05T01:04:52.068Z,39.14
2017-04-05T01:05:52.089Z,39.14
2017-04-05T01:06:52.153Z,38.95
2017-04-05T01:07:52.104Z,38.47
2017-04-05T01:08:51.787Z,38.47
2017-04-05T01:09:51.854Z,38.85
2017-04-05T01:10:52.110Z,38.56
2017-04-05T01:11:52.119Z,38.47
2017-04-05T01:12:52.192Z,38.66
2017-04-05T01:13:52.175Z,38.85
2017-04-05T01:14:52.182Z,38.66
2017-04-05T01:15:52.147Z,38.56
2017-04-05T01:16:52.192Z,38.66
2017-04-05T01:17:52.150Z,38.85
2017-04-05T01:18:51.837Z,39.24
2017-04-05T01:19:52.207Z,38.85
2017-04-05T01:20:53.262Z,38.85
2017-04-05T01:21:51.903Z,38.85
2017-04-05T01:22:52.274Z,38.66
2017-04-05T01:23:52.182Z,38.85
2017-04-05T01:24:52.184Z,39.04
2017-04-05T01:25:52.191Z,38.56
2017-04-05T01:26:52.192Z,38.76
2017-04-05T01:27:52.247Z,38.47
2017-04-05T01:28:52.250Z,38.56
2017-04-05T01:29:52.360Z,38.47
2017-04-05T01:30:52.005Z,38.76
2017-04-05T01:31:53.015Z,38.66
2017-04-05T01:33:52.276Z,38.66
2017-04-05T01:34:52.282Z,38.47
2017-04-05T01:35:52.245Z,38.66
2017-04-05T01:36:51.927Z,38.56
2017-04-05T01:37:52.244Z,38.76
2017-04-05T01:42:38.547Z,38.47
2017-04-05T01:43:39.059Z,38.66
2017-04-05T01:44:38.772Z,38.66
2017-04-05T01:45:38.770Z,38.66
2017-04-05T01:46:38.785Z,38.76
2017-04-05T01:47:38.836Z,38.66
2017-04-05T01:48:38.792Z,38.85
2017-04-05T01:49:38.848Z,38.56
2017-04-05T01:50:38.850Z,38.76
2017-04-05T01:51:38.800Z,38.37
2017-04-05T01:52:38.600Z,38.47
2017-04-05T01:53:40.013Z,38.76
2017-04-05T01:54:38.815Z,38.85
2017-04-05T01:55:38.827Z,39.04
2017-04-05T01:56:38.879Z,39.04
2017-04-05T01:57:38.833Z,39.04
2017-04-05T01:58:38.834Z,39.04
2017-04-05T01:59:38.841Z,39.04
2017-04-05T02:00:38.958Z,38.95
2017-04-05T02:01:38.908Z,38.95
2017-04-05T02:02:38.914Z,39.14
2017-04-05T02:03:38.861Z,38.85
2017-04-05T02:04:39.867Z,38.95
2017-04-05T02:05:38.870Z,38.47
2017-04-05T02:06:38.563Z,38.47
2017-04-05T02:07:38.881Z,38.37
2017-04-05T02:08:38.577Z,38.66
2017-04-05T02:10:38.952Z,38.47
2017-04-05T02:11:38.902Z,38.47
2017-04-05T02:12:38.961Z,38.37
2017-04-05T02:13:39.016Z,38.66
2017-04-05T02:14:38.914Z,38.56
2017-04-05T02:15:39.579Z,38.47
2017-04-05T02:16:38.934Z,38.56
2017-04-05T02:17:38.981Z,38.47
2017-04-05T02:18:38.936Z,38.47
2017-04-05T02:19:38.943Z,38.56
2017-04-05T02:20:38.995Z,38.56
2017-04-05T02:21:38.749Z,38.47
2017-04-05T02:22:38.956Z,38.47
2017-04-05T02:23:38.962Z,38.56
2017-04-05T02:24:38.965Z,38.66
2017-04-05T02:25:38.661Z,38.56
2017-04-05T02:26:39.463Z,38.56
2017-04-05T02:27:38.668Z,38.37
2017-04-05T02:28:39.039Z,38.56
2017-04-05T02:29:38.992Z,38.47
2017-04-05T02:30:38.996Z,38.47
2017-04-05T02:31:39.009Z,38.56
2017-04-05T02:32:39.057Z,38.56
2017-04-05T02:33:53.580Z,38.37
2017-04-05T02:34:39.067Z,38.56
2017-04-05T02:35:38.716Z,38.47
2017-04-05T02:36:39.027Z,38.47
2017-04-05T02:37:39.134Z,38.47
2017-04-05T02:38:38.776Z,38.47
2017-04-05T02:39:38.779Z,38.56
2017-04-05T02:40:38.742Z,38.56
2017-04-05T02:41:39.151Z,38.56
2017-04-05T02:42:39.118Z,38.56
2017-04-05T02:43:39.061Z,38.56
2017-04-05T02:44:39.119Z,38.37
2017-04-05T02:45:39.124Z,38.28
2017-04-05T02:46:39.079Z,38.37
2017-04-05T02:47:39.092Z,38.56
2017-04-05T02:48:39.143Z,38.47
2017-04-05T02:49:39.098Z,38.56
2017-04-05T02:50:39.096Z,38.56
2017-04-05T02:51:39.110Z,38.56
2017-04-05T02:52:39.108Z,38.66
2017-04-05T02:53:38.855Z,38.47
2017-04-05T02:54:39.131Z,38.47
2017-04-05T02:55:39.123Z,38.47
2017-04-05T02:56:39.177Z,38.56
2017-04-05T02:57:39.140Z,38.47
2017-04-05T02:58:38.828Z,38.66
2017-04-05T02:59:39.200Z,38.85
2017-04-05T03:00:39.153Z,38.66
2017-04-05T03:01:40.255Z,39.04
2017-04-05T03:02:39.157Z,38.85
2017-04-05T03:03:38.858Z,39.04
2017-04-05T03:04:39.230Z,38.84
2017-04-05T03:05:39.180Z,38.47
2017-04-05T03:06:38.918Z,38.76
2017-04-05T03:07:39.182Z,38.56
2017-04-05T03:08:39.191Z,38.56
2017-04-05T03:09:39.205Z,38.47
2017-04-05T03:10:39.208Z,38.37
2017-04-05T03:11:39.204Z,38.37
2017-04-05T03:12:39.959Z,38.18
2017-04-05T03:13:39.215Z,38.28
2017-04-05T03:14:39.278Z,38.47
2017-04-05T03:15:39.283Z,38.47
2017-04-05T03:16:39.280Z,38.56
2017-04-05T03:17:39.233Z,38.37
2017-04-05T03:18:39.248Z,38.28
2017-04-05T03:19:39.249Z,38.56
2017-04-05T03:20:39.298Z,38.37
2017-04-05T03:21:39.307Z,38.28
2017-04-05T03:22:39.267Z,38.28
2017-04-05T03:23:39.302Z,38.28
2017-04-05T03:24:39.268Z,38.28
2017-04-05T03:25:39.275Z,38.18
2017-04-05T03:26:39.329Z,37.99
2017-04-05T03:27:39.282Z,38.28
2017-04-05T03:28:39.289Z,38.28
2017-04-05T03:29:38.982Z,38.47
2017-04-05T03:30:39.350Z,38.28
2017-04-05T03:31:38.991Z,38.28
2017-04-05T03:32:39.001Z,38.47
2017-04-05T03:33:39.315Z,38.37
2017-04-05T03:34:39.777Z,38.37
2017-04-05T03:35:39.333Z,38.47
2017-04-05T03:36:39.342Z,38.56
2017-04-05T03:37:39.336Z,38.47
2017-04-05T03:38:39.338Z,38.28
2017-04-05T03:39:39.396Z,38.37
2017-04-05T03:40:39.353Z,38.37
2017-04-05T03:41:39.359Z,38.47
2017-04-05T03:42:39.358Z,38.66
2017-04-05T03:43:39.370Z,38.56
2017-04-05T03:44:39.369Z,38.56
2017-04-05T03:45:39.540Z,38.66
2017-04-05T03:46:39.387Z,38.28
2017-04-05T03:47:40.359Z,38.37
2017-04-05T03:48:39.595Z,38.47
2017-04-05T03:49:39.446Z,38.47
2017-04-05T03:50:39.404Z,38.56
2017-04-05T03:51:39.404Z,38.56
2017-04-05T03:52:39.146Z,38.56
2017-04-05T03:53:39.475Z,38.47
2017-04-05T03:54:39.113Z,38.56
2017-04-05T03:55:39.482Z,38.47
2017-04-05T03:56:39.431Z,38.47
2017-04-05T03:57:39.439Z,38.54
2017-04-05T03:58:40.615Z,38.54
2017-04-05T03:59:39.453Z,38.54
2017-04-05T04:00:39.510Z,38.45
2017-04-05T04:01:39.763Z,38.85
2017-04-05T04:02:39.569Z,38.54
2017-04-05T04:03:54.085Z,38.56
2017-04-05T04:04:39.267Z,38.95
2017-04-05T04:05:39.168Z,38.85
2017-04-05T04:06:39.490Z,38.66
2017-04-05T04:07:39.484Z,38.47
2017-04-05T04:08:39.547Z,38.47
2017-04-05T04:09:40.510Z,38.47
2017-04-05T04:10:39.509Z,38.64
2017-04-05T04:11:39.443Z,38.54
2017-04-05T04:12:39.561Z,38.56
2017-04-05T04:13:39.518Z,38.56
2017-04-05T04:14:39.520Z,38.56
2017-04-05T04:15:39.602Z,38.37
2017-04-05T04:16:39.542Z,38.56
2017-04-05T04:17:39.598Z,38.47
2017-04-05T04:18:39.542Z,38.35
2017-04-05T04:19:39.549Z,38.47
2017-04-05T04:20:40.459Z,38.56
2017-04-05T04:21:39.565Z,38.54
2017-04-05T04:22:39.250Z,38.66
2017-04-05T04:23:39.626Z,38.56
2017-04-05T04:24:39.569Z,38.47
2017-04-05T04:25:39.575Z,38.54
2017-04-05T04:26:39.579Z,38.76
2017-04-05T04:27:39.584Z,38.54
2017-04-05T04:28:39.589Z,38.45
2017-04-05T04:29:39.644Z,38.54
2017-04-05T04:30:39.609Z,38.47
2017-04-05T04:31:40.260Z,38.56
2017-04-05T04:32:39.666Z,38.47
2017-04-05T04:33:39.615Z,38.66
2017-04-05T04:34:39.618Z,38.56
2017-04-05T04:35:39.675Z,38.47
2017-04-05T04:36:39.684Z,38.47
2017-04-05T04:37:39.644Z,38.47
2017-04-05T04:38:39.647Z,38.66
2017-04-05T04:39:39.645Z,38.47
2017-04-05T04:40:39.703Z,38.56
2017-04-05T04:41:39.860Z,38.56
2017-04-05T04:42:40.210Z,38.45
2017-04-05T04:43:39.359Z,38.56
2017-04-05T04:44:39.671Z,38.47
2017-04-05T04:45:39.688Z,38.56
2017-04-05T04:46:39.678Z,38.56
2017-04-05T04:47:39.705Z,38.37
2017-04-05T04:48:39.378Z,38.47
2017-04-05T04:49:39.744Z,38.56
2017-04-05T04:50:39.800Z,38.47
2017-04-05T04:51:39.763Z,38.66
2017-04-05T04:52:39.810Z,38.56
2017-04-05T04:53:40.023Z,38.56
2017-04-05T04:54:39.724Z,38.28
2017-04-05T04:55:40.704Z,38.56
2017-04-05T04:56:39.730Z,38.56
2017-04-05T04:57:40.282Z,38.45
2017-04-05T04:58:39.737Z,38.56
2017-04-05T04:59:40.283Z,38.66
2017-04-05T05:00:39.498Z,38.47
2017-04-05T05:01:39.763Z,38.37
2017-04-05T05:02:39.764Z,38.56
2017-04-05T05:03:39.772Z,38.56
2017-04-05T05:04:39.818Z,38.45
2017-04-05T05:05:39.780Z,38.56
2017-04-05T05:06:41.208Z,38.74
2017-04-05T05:07:39.528Z,38.45
2017-04-05T05:08:40.098Z,38.64
2017-04-05T05:09:39.796Z,39.03
2017-04-05T05:10:40.000Z,39.03
2017-04-05T05:11:39.806Z,39.03
2017-04-05T05:12:39.817Z,38.54
2017-04-05T05:13:39.558Z,38.45
2017-04-05T05:14:39.513Z,38.56
2017-04-05T05:15:39.832Z,38.56
2017-04-05T05:16:39.838Z,38.56
2017-04-05T05:17:39.543Z,38.56
2017-04-05T05:18:39.853Z,38.28
2017-04-05T05:19:40.542Z,38.28
2017-04-05T05:20:39.544Z,37.89
2017-04-05T05:21:39.866Z,38.18
2017-04-05T05:22:39.857Z,37.89
2017-04-05T05:23:39.894Z,38.09
2017-04-05T05:24:39.879Z,38.28
2017-04-05T05:25:39.883Z,38.18
2017-04-05T05:26:39.979Z,38.09
2017-04-05T05:27:39.892Z,38.09
2017-04-05T05:28:39.937Z,37.89
2017-04-05T05:29:39.949Z,38.18
2017-04-05T05:30:40.452Z,37.89
2017-04-05T05:31:39.904Z,38.09
2017-04-05T05:32:39.907Z,37.7
2017-04-05T05:33:42.025Z,37.7
2017-04-05T05:34:39.917Z,37.6
2017-04-05T05:35:39.923Z,37.81
2017-04-05T05:36:39.936Z,37.24
2017-04-05T05:37:39.984Z,37.89
2017-04-05T05:38:39.946Z,37.62
2017-04-05T05:39:40.927Z,37.41
2017-04-05T05:40:39.950Z,37.72
2017-04-05T05:41:40.311Z,37.43
2017-04-05T05:42:39.971Z,37.43
2017-04-05T05:43:39.971Z,37.62
2017-04-05T05:44:39.971Z,37.62
2017-04-05T05:45:39.981Z,37.43
2017-04-05T05:46:39.978Z,37.43
2017-04-05T05:47:39.984Z,37.6
2017-04-05T05:48:39.990Z,37.6
2017-04-05T05:49:40.003Z,37.6
2017-04-05T05:50:40.052Z,37.6
2017-04-05T05:51:39.699Z,37.62
2017-04-05T05:52:40.061Z,37.62
2017-04-05T05:53:40.016Z,37.7
2017-04-05T05:54:40.997Z,37.72
2017-04-05T05:55:40.138Z,37.6
2017-04-05T05:56:40.036Z,37.52
2017-04-05T05:57:40.070Z,37.41
2017-04-05T05:58:40.041Z,37.52
2017-04-05T05:59:40.053Z,37.34
2017-04-05T06:00:40.150Z,37.24
2017-04-05T06:01:39.757Z,36.95
2017-04-05T06:02:40.111Z,37.34
2017-04-05T06:03:40.367Z,36.85
2017-04-05T06:04:40.081Z,37.14
2017-04-05T06:05:40.082Z,37.04
2017-04-05T06:06:40.097Z,36.56
2017-04-05T06:07:40.091Z,36.66
2017-04-05T06:08:40.094Z,36.29
2017-04-05T06:09:40.096Z,36.49
2017-04-05T06:10:39.803Z,36.19
2017-04-05T06:11:40.161Z,36.29
2017-04-05T06:12:39.805Z,35.91
2017-04-05T06:13:40.171Z,36.1
2017-04-05T06:14:40.062Z,36.29
2017-04-05T06:15:40.184Z,36.21
2017-04-05T06:16:40.146Z,36.31
2017-04-05T06:17:39.886Z,35.64
2017-04-05T06:18:40.147Z,35.62
2017-04-05T06:19:40.213Z,35.54
2017-04-05T06:20:40.218Z,35.44
2017-04-05T06:21:39.861Z,35.35
2017-04-05T06:22:40.168Z,35.35
2017-04-05T06:23:40.182Z,35.25
2017-04-05T06:24:40.227Z,35.44
2017-04-05T06:25:40.291Z,35.54
2017-04-05T06:26:40.259Z,35.35
2017-04-05T06:27:40.195Z,35.44
2017-04-05T06:28:40.251Z,35.64
2017-04-05T06:29:40.217Z,35.25
2017-04-05T06:30:40.266Z,35.16
2017-04-05T06:31:39.947Z,35.16
2017-04-05T06:32:40.233Z,35.35
2017-04-05T06:33:54.796Z,35.44
2017-04-05T06:34:40.283Z,36.11
2017-04-05T06:35:40.249Z,35.71
2017-04-05T06:36:40.252Z,36.29
2017-04-05T06:37:40.314Z,36.39
2017-04-05T06:38:41.164Z,36.29
2017-04-05T06:39:40.312Z,36.29
2017-04-05T06:40:40.527Z,36.49
2017-04-05T06:41:40.276Z,36.58
2017-04-05T06:42:40.379Z,36.77
2017-04-05T06:43:40.332Z,36.49
2017-04-05T06:44:40.290Z,36.66
2017-04-05T06:45:40.350Z,36.77
2017-04-05T06:46:40.299Z,36.56
2017-04-05T06:47:40.357Z,36.68
2017-04-05T06:48:40.367Z,36.68
2017-04-05T06:49:41.416Z,36.76
2017-04-05T06:50:40.327Z,36.76
2017-04-05T06:51:40.331Z,36.49
2017-04-05T06:52:40.381Z,36.47
2017-04-05T06:53:40.340Z,36.49
2017-04-05T06:54:40.341Z,36.19
2017-04-05T06:55:40.350Z,36.39
2017-04-05T06:56:40.087Z,36.19
2017-04-05T06:57:40.358Z,36.19
2017-04-05T06:58:40.416Z,35.91
2017-04-05T06:59:40.373Z,35.52
2017-04-05T07:00:41.123Z,36.19
2017-04-05T07:01:40.379Z,35.52
2017-04-05T07:02:40.446Z,35.16
2017-04-05T07:03:40.389Z,35.25
2017-04-05T07:04:40.442Z,35.25
2017-04-05T07:05:40.398Z,35.25
2017-04-05T07:06:40.513Z,35.35
2017-04-05T07:07:40.411Z,35.35
2017-04-05T07:08:40.416Z,35.25
2017-04-05T07:09:40.419Z,35.25
2017-04-05T07:10:40.422Z,35.44
2017-04-05T07:11:41.036Z,35.54
2017-04-05T07:12:40.614Z,35.35
2017-04-05T07:13:40.133Z,35.35
2017-04-05T07:14:40.330Z,35.35
2017-04-05T07:15:40.429Z,35.16
2017-04-05T07:16:40.632Z,35.44
2017-04-05T07:17:40.325Z,35.35
2017-04-05T07:18:40.880Z,35.06
2017-04-05T07:19:40.476Z,35.35
2017-04-05T07:20:40.914Z,35.73
2017-04-05T07:21:40.485Z,35.54
2017-04-05T07:22:40.894Z,35.91
2017-04-05T07:23:40.495Z,36
2017-04-05T07:24:40.507Z,35.81
2017-04-05T07:25:40.506Z,35.73
2017-04-05T07:26:41.170Z,35.93
2017-04-05T07:27:40.569Z,36
2017-04-05T07:28:40.574Z,35.54
2017-04-05T07:29:40.610Z,36.02
2017-04-05T07:30:40.541Z,35.73
2017-04-05T07:31:40.539Z,35.64
2017-04-05T07:32:40.545Z,35.35
2017-04-05T07:33:55.114Z,35.25
2017-04-05T07:34:40.612Z,35.25
2017-04-05T07:35:40.568Z,35.25
2017-04-05T07:36:40.615Z,35.44
2017-04-05T07:37:40.972Z,35.44
2017-04-05T07:38:40.579Z,36.02
2017-04-05T07:39:40.588Z,35.44
2017-04-05T07:40:40.331Z,35.93
2017-04-05T07:41:40.595Z,36.21
2017-04-05T07:42:40.658Z,36.49
2017-04-05T07:43:40.606Z,36.58
2017-04-05T07:44:40.663Z,36.97
2017-04-05T07:45:40.614Z,37.16
2017-04-05T07:46:40.365Z,37.16
2017-04-05T07:47:40.683Z,37.06
2017-04-05T07:48:41.123Z,37.16
2017-04-05T07:49:40.699Z,37.16
2017-04-05T07:50:40.849Z,36.68
2017-04-05T07:51:40.698Z,36.69
2017-04-05T07:52:40.709Z,36.41
2017-04-05T07:53:40.348Z,36.31
2017-04-05T07:54:40.672Z,36.31
2017-04-05T07:55:40.673Z,36.21
2017-04-05T07:56:40.417Z,36.43
2017-04-05T07:57:40.688Z,36.33
2017-04-05T07:58:40.743Z,36.04
2017-04-05T07:59:41.092Z,35.85
2017-04-05T08:00:40.749Z,35.94
2017-04-05T08:01:40.804Z,35.75
2017-04-05T08:02:40.452Z,36.13
2017-04-05T08:03:40.715Z,35.56
2017-04-05T08:04:40.795Z,35.36
2017-04-05T08:05:40.424Z,35.48
2017-04-05T08:06:40.735Z,35.67
2017-04-05T08:07:40.747Z,36.15
2017-04-05T08:08:41.863Z,35.94
2017-04-05T08:09:40.492Z,35.65
2017-04-05T08:10:40.809Z,36.04
2017-04-05T08:11:40.818Z,35.56
2017-04-05T08:12:40.818Z,36.13
2017-04-05T08:13:40.830Z,36.23
2017-04-05T08:14:40.462Z,35.46
2017-04-05T08:15:40.472Z,35.38
2017-04-05T08:16:40.794Z,35.48
2017-04-05T08:17:40.797Z,35.48
2017-04-05T08:18:40.488Z,35.67
2017-04-05T08:19:40.858Z,35.67
2017-04-05T08:20:40.868Z,35.86
2017-04-05T08:21:40.967Z,35.67
2017-04-05T08:22:40.826Z,35.67
2017-04-05T08:23:41.804Z,35.77
2017-04-05T08:24:40.885Z,35.67
2017-04-05T08:25:40.839Z,35.58
2017-04-05T08:26:40.848Z,35.58
2017-04-05T08:27:40.905Z,35.96
2017-04-05T08:28:40.858Z,35.86
2017-04-05T08:29:40.862Z,36.15
2017-04-05T08:30:40.868Z,36.15
2017-04-05T08:31:40.621Z,35.19
2017-04-05T08:32:40.988Z,35
2017-04-05T08:33:40.626Z,34.72
2017-04-05T08:34:40.587Z,35.3
2017-04-05T08:35:40.899Z,35.67
2017-04-05T08:36:40.644Z,35.77
2017-04-05T08:37:40.911Z,36.43
2017-04-05T08:38:40.919Z,36.61
2017-04-05T08:39:40.665Z,37.18
2017-04-05T08:40:40.664Z,37.46
2017-04-05T08:41:40.998Z,37.46
2017-04-05T08:42:40.629Z,37.66
2017-04-05T08:43:40.945Z,37.46
2017-04-05T08:44:40.638Z,37.85
2017-04-05T08:45:41.837Z,37.76
2017-04-05T08:46:41.023Z,37.85
2017-04-05T08:47:41.018Z,37.56
2017-04-05T08:48:41.029Z,37.56
2017-04-05T08:49:40.987Z,37.76
2017-04-05T08:50:40.989Z,37.76
2017-04-05T08:51:40.677Z,37.95
2017-04-05T08:52:40.998Z,38.22
2017-04-05T08:53:41.057Z,38.12
2017-04-05T08:54:41.010Z,38.6
2017-04-05T08:55:41.023Z,38.6
2017-04-05T08:56:41.071Z,38.41
2017-04-05T08:57:40.713Z,38.6
2017-04-05T08:58:41.031Z,38.6
2017-04-05T08:59:40.727Z,38.6
2017-04-05T09:00:41.192Z,38.51
2017-04-05T09:01:41.360Z,38.51
2017-04-05T09:02:41.052Z,38.51
2017-04-05T09:03:41.163Z,38.6
2017-04-05T09:04:41.172Z,38.51
2017-04-05T09:05:41.321Z,38.51
2017-04-05T09:06:41.132Z,38.51
2017-04-05T09:07:42.112Z,38.6
2017-04-05T09:08:40.825Z,38.79
2017-04-05T09:09:41.540Z,39.09
2017-04-05T09:10:41.154Z,39.09
2017-04-05T09:11:40.846Z,38.89
2017-04-05T09:12:40.795Z,38.7
2017-04-05T09:13:40.801Z,38.31
2017-04-05T09:14:40.806Z,38.33
2017-04-05T09:15:41.175Z,38.43
2017-04-05T09:16:41.182Z,38.24
2017-04-05T09:17:41.148Z,38.62
2017-04-05T09:18:41.148Z,38.53
2017-04-05T09:19:41.200Z,38.53
2017-04-05T09:20:41.456Z,38.33
2017-04-05T09:21:40.899Z,38.43
2017-04-05T09:22:41.220Z,38.43
2017-04-05T09:23:40.919Z,38.33
2017-04-05T09:24:41.232Z,38.24
2017-04-05T09:25:40.917Z,38.04
2017-04-05T09:26:40.874Z,37.85
2017-04-05T09:27:41.196Z,37.66
2017-04-05T09:28:41.196Z,37.58
2017-04-05T09:29:42.181Z,37.39
2017-04-05T09:30:41.263Z,37.19
2017-04-05T09:31:41.513Z,36.71
2017-04-05T09:32:41.218Z,36.44
2017-04-05T09:33:55.790Z,36.35
2017-04-05T09:34:41.229Z,36.15
2017-04-05T09:35:41.292Z,36.06
2017-04-05T09:36:41.242Z,35.58
2017-04-05T09:37:41.245Z,35.5
2017-04-05T09:38:40.944Z,35.3
2017-04-05T09:39:40.952Z,35.3
2017-04-05T09:40:41.454Z,35.5
2017-04-05T09:41:41.269Z,35.4
2017-04-05T09:42:41.687Z,35.4
2017-04-05T09:43:41.348Z,35.21
2017-04-05T09:44:41.288Z,35.3
2017-04-05T09:45:41.392Z,34.92
2017-04-05T09:46:41.354Z,34.92
2017-04-05T09:47:41.303Z,35.11
2017-04-05T09:48:41.307Z,35.21
2017-04-05T09:49:41.365Z,35.11
2017-04-05T09:50:41.014Z,35.02
2017-04-05T09:51:42.245Z,35.32
2017-04-05T09:52:41.388Z,35.3
2017-04-05T09:53:41.488Z,35.11
2017-04-05T09:54:41.033Z,35.11
2017-04-05T09:55:41.400Z,35.3
2017-04-05T09:56:41.097Z,35.4
2017-04-05T09:57:41.365Z,35.4
2017-04-05T09:58:41.364Z,35.5
2017-04-05T09:59:41.428Z,35.3
2017-04-05T10:00:41.382Z,35.4
2017-04-05T10:01:41.441Z,35.3
2017-04-05T10:02:41.085Z,35.4
2017-04-05T10:03:56.012Z,35.5
2017-04-05T10:04:41.452Z,35.69
2017-04-05T10:05:41.406Z,36.07
2017-04-05T10:06:42.322Z,35.78
2017-04-05T10:07:41.110Z,35.59
2017-04-05T10:08:41.429Z,36.27
2017-04-05T10:09:41.440Z,35.5
2017-04-05T10:10:41.442Z,36.17
2017-04-05T10:11:41.452Z,36.07
2017-04-05T10:12:41.496Z,36.17
2017-04-05T10:13:41.507Z,36.17
2017-04-05T10:14:41.461Z,36.07
2017-04-05T10:15:41.523Z,35.59
2017-04-05T10:16:41.533Z,35.59
2017-04-05T10:17:41.476Z,36.07
2017-04-05T10:18:41.483Z,36.07
2017-04-05T10:19:41.228Z,35.78
2017-04-05T10:20:41.494Z,36.17
2017-04-05T10:21:41.506Z,35.48
2017-04-05T10:22:41.521Z,36.06
2017-04-05T10:23:41.511Z,35.96
2017-04-05T10:24:41.207Z,35.86
2017-04-05T10:25:41.221Z,35.67
2017-04-05T10:26:41.536Z,35.78
2017-04-05T10:27:41.592Z,35.67
2017-04-05T10:28:42.698Z,35.58
2017-04-05T10:29:41.597Z,35.67
2017-04-05T10:30:41.559Z,35.67
2017-04-05T10:31:41.559Z,36.06
2017-04-05T10:32:41.615Z,35.96
2017-04-05T10:33:41.630Z,36.06
2017-04-05T10:34:41.634Z,36.35
2017-04-05T10:35:41.631Z,35.96
2017-04-05T10:36:41.338Z,36.06
2017-04-05T10:37:41.650Z,36.25
2017-04-05T10:38:41.650Z,36.35
2017-04-05T10:39:42.822Z,35.96
2017-04-05T10:40:41.303Z,35.96
2017-04-05T10:41:41.624Z,36.25
2017-04-05T10:42:41.316Z,36.44
2017-04-05T10:43:41.629Z,36.35
2017-04-05T10:44:41.683Z,36.25
2017-04-05T10:45:41.329Z,36.54
2017-04-05T10:46:41.347Z,36.15
2017-04-05T10:47:41.712Z,36.35
2017-04-05T10:48:41.717Z,36.63
2017-04-05T10:49:41.664Z,36.35
2017-04-05T10:50:42.262Z,36.35
2017-04-05T10:51:41.725Z,36.25
2017-04-05T10:52:41.690Z,36.25
2017-04-05T10:53:41.740Z,36.35
2017-04-05T10:54:41.704Z,36.54
2017-04-05T10:55:41.706Z,36.73
2017-04-05T10:56:41.712Z,36.63
2017-04-05T10:57:41.400Z,36.73
2017-04-05T10:58:41.723Z,36.35
2017-04-05T10:59:41.726Z,36.63
2017-04-05T11:00:41.735Z,36.25
2017-04-05T11:01:42.745Z,36.54
2017-04-05T11:02:41.759Z,36.83
2017-04-05T11:03:41.801Z,36.73
2017-04-05T11:04:41.756Z,36.93
2017-04-05T11:05:41.812Z,37.1
2017-04-05T11:06:41.822Z,37.19
2017-04-05T11:07:41.460Z,37.29
2017-04-05T11:08:42.077Z,37.58
2017-04-05T11:09:41.792Z,37.58
2017-04-05T11:10:41.807Z,37.87
2017-04-05T11:11:41.805Z,37.87
2017-04-05T11:12:42.253Z,37.77
2017-04-05T11:13:41.807Z,37.96
2017-04-05T11:14:41.872Z,37.68
2017-04-05T11:15:41.821Z,37.87
2017-04-05T11:16:41.888Z,37.77
2017-04-05T11:17:41.842Z,37.68
2017-04-05T11:18:41.886Z,37.58
2017-04-05T11:19:41.852Z,37.48
2017-04-05T11:20:41.534Z,37.58
2017-04-05T11:21:41.853Z,37.29
2017-04-05T11:22:41.865Z,37.39
2017-04-05T11:23:42.067Z,37.48
2017-04-05T11:24:41.870Z,37.58
2017-04-05T11:25:41.976Z,37.48
2017-04-05T11:26:41.937Z,37.39
2017-04-05T11:27:41.937Z,36.91
2017-04-05T11:28:41.895Z,37.19
2017-04-05T11:29:41.899Z,37.21
2017-04-05T11:30:43.173Z,37.1
2017-04-05T11:31:41.967Z,36.63
2017-04-05T11:32:41.916Z,36.63
2017-04-05T11:33:56.536Z,36.63
2017-04-05T11:34:41.979Z,36.44
2017-04-05T11:35:41.933Z,36.63
2017-04-05T11:36:42.847Z,36.83
2017-04-05T11:37:42.000Z,36.63
2017-04-05T11:38:42.155Z,36.73
2017-04-05T11:39:42.004Z,36.61
2017-04-05T11:40:42.016Z,36.81
2017-04-05T11:41:41.969Z,36.43
2017-04-05T11:42:41.972Z,36.71
2017-04-05T11:43:42.028Z,36.81
2017-04-05T11:44:42.294Z,36.81
2017-04-05T11:45:41.991Z,36.73
2017-04-05T11:46:42.140Z,36.73
2017-04-05T11:47:43.124Z,36.54
2017-04-05T11:48:42.009Z,36.35
2017-04-05T11:49:42.031Z,36.44
2017-04-05T11:50:41.765Z,36.15
2017-04-05T11:51:41.714Z,36.35
2017-04-05T11:52:41.777Z,36.25
2017-04-05T11:53:42.042Z,36.25
2017-04-05T11:54:41.739Z,36.25
2017-04-05T11:55:42.116Z,36.35
2017-04-05T11:56:42.109Z,36.15
2017-04-05T11:57:42.122Z,36.44
2017-04-05T11:58:43.171Z,36.44
2017-04-05T11:59:42.137Z,36.44
2017-04-05T12:00:42.139Z,36.25
2017-04-05T12:01:42.089Z,36.35
2017-04-05T12:02:42.145Z,36.25
2017-04-05T12:03:42.097Z,36.44
2017-04-05T12:04:42.156Z,36.35
2017-04-05T12:05:42.165Z,36.43
2017-04-05T12:06:42.125Z,36.43
2017-04-05T12:07:42.423Z,36.43
2017-04-05T12:08:42.153Z,36.23
2017-04-05T12:09:41.824Z,35.96
2017-04-05T12:10:42.953Z,36.06
2017-04-05T12:11:42.333Z,35.58
2017-04-05T12:12:42.154Z,35.58
2017-04-05T12:13:42.209Z,35.58
2017-04-05T12:14:41.868Z,36.04
2017-04-05T12:15:42.171Z,35.67
2017-04-05T12:16:41.970Z,35.67
2017-04-05T12:17:42.234Z,35.77
2017-04-05T12:18:42.240Z,35.86
2017-04-05T12:19:42.199Z,35.96
2017-04-05T12:20:43.360Z,35.96
2017-04-05T12:21:42.266Z,35.96
2017-04-05T12:22:42.253Z,35.96
2017-04-05T12:23:42.266Z,35.86
2017-04-05T12:24:43.347Z,35.58
2017-04-05T12:25:42.289Z,36.06
2017-04-05T12:26:41.941Z,35.96
2017-04-05T12:27:42.297Z,35.86
2017-04-05T12:28:42.306Z,35.58
2017-04-05T12:29:42.331Z,36.25
2017-04-05T12:30:41.999Z,35.86
2017-04-05T12:31:41.965Z,35.67
2017-04-05T12:32:42.328Z,35.67
2017-04-05T12:33:42.284Z,35.48
2017-04-05T12:34:42.338Z,35.58
2017-04-05T12:35:43.196Z,35.67
2017-04-05T12:36:42.361Z,35.48
2017-04-05T12:37:42.309Z,35.48
2017-04-05T12:38:42.056Z,35.67
2017-04-05T12:39:42.323Z,35.77
2017-04-05T12:40:42.071Z,36.15
2017-04-05T12:41:42.329Z,36.25
2017-04-05T12:44:42.037Z,36.25
2017-04-05T12:45:42.361Z,36.35
2017-04-05T12:46:43.111Z,36.35
2017-04-05T12:47:42.372Z,36.35
2017-04-05T12:48:42.429Z,36.44
2017-04-05T12:49:42.443Z,36.25
2017-04-05T12:50:42.122Z,36.44
2017-04-05T12:51:42.392Z,36.54
2017-04-05T12:52:42.499Z,36.35
2017-04-05T12:53:42.480Z,36.35
2017-04-05T12:54:42.512Z,36.44
2017-04-05T12:55:42.425Z,36.15
2017-04-05T12:56:42.444Z,36.35
2017-04-05T12:57:42.833Z,36.35
2017-04-05T12:58:42.433Z,35.86
2017-04-05T12:59:42.492Z,36.06
2017-04-05T13:00:42.183Z,35.86
2017-04-05T13:01:42.503Z,35.77
2017-04-05T13:02:42.465Z,35.86